Time;durP1;ratioP1;P1;durP2;ratioP2;P2;SDS_P1;SDS_P2;PMS_P1;PMS_P2;Temp;Humidity;BMP_temperature;BMP_pressure;BME280_temperature;BME280_humidity;BME280_pressure;Samples;Min_cycle;Max_cycle;Signal;HPM_P1;HPM_P2
2022/06/13 00:04:36;;;;;;;10.07;4.68;;;;;;;11.94;83.55;102026.47;10551004;28;20040;-77
2022/06/13 00:09:37;;;;;;;8.77;4.53;;;;;;;11.91;83.66;102023.75;10519600;28;20044;-77
2022/06/13 00:14:39;;;;;;;13.90;5.28;;;;;;;11.97;84.51;102016.28;10520964;28;20113;-76
2022/06/13 00:19:41;;;;;;;19.88;6.78;;;;;;;12.12;84.42;102009.91;10530866;28;20040;-76
2022/06/13 00:24:42;;;;;;;13.07;5.80;;;;;;;12.12;84.65;102009.91;10553337;28;20526;-76
2022/06/13 00:29:47;;;;;;;12.65;5.97;;;;;;;12.02;85.74;101996.69;10529142;28;20445;-76
2022/06/13 00:34:49;;;;;;;15.55;5.78;;;;;;;12.14;83.84;101987.63;10515447;28;20138;-76
2022/06/13 00:39:51;;;;;;;16.73;6.57;;;;;;;12.15;84.90;101994.53;10554013;28;20105;-76
2022/06/13 00:45:07;;;;;;;14.38;6.50;;;;;;;12.26;85.64;101998.38;10529387;28;20266;-76
2022/06/13 00:50:14;;;;;;;11.75;5.57;;;;;;;12.24;85.75;102005.22;10533645;28;20050;-76
2022/06/13 00:55:26;;;;;;;10.70;5.25;;;;;;;12.03;84.81;102007.88;10545576;28;20495;-76
2022/06/13 01:00:30;;;;;;;7.93;5.13;;;;;;;12.03;85.12;101995.81;10547714;28;20055;-76
2022/06/13 01:05:39;;;;;;;10.52;6.10;;;;;;;12.18;85.68;101979.13;10533665;28;20409;-76
2022/06/13 01:16:26;;;;;;;13.13;6.93;;;;;;;12.04;85.20;101970.91;10542675;28;20075;-76
2022/06/13 01:21:46;;;;;;;16.70;7.05;;;;;;;12.05;84.00;101965.78;10527286;28;20055;-77
2022/06/13 01:27:30;;;;;;;13.23;6.85;;;;;;;11.95;85.74;101976.53;10529031;28;20502;-76
2022/06/13 01:32:52;;;;;;;11.38;6.25;;;;;;;11.92;87.80;101984.19;10526013;28;20101;-76
2022/06/13 01:38:23;;;;;;;10.93;5.95;;;;;;;12.10;88.07;101985.75;10531222;28;20081;-76
2022/06/13 01:43:32;;;;;;;;;;;;;;;12.09;88.14;101984.00;10521579;28;20442;-77
2022/06/13 01:48:47;;;;;;;12.70;6.45;;;;;;;12.20;87.75;101988.72;10522828;28;19959;-76
2022/06/13 01:53:57;;;;;;;11.98;6.78;;;;;;;12.33;86.03;101984.00;10523430;28;20055;-77
2022/06/13 01:59:04;;;;;;;10.23;6.03;;;;;;;12.32;86.38;101984.81;10548349;28;20076;-77
2022/06/13 02:04:16;;;;;;;13.57;6.57;;;;;;;12.37;87.66;101991.91;10548061;28;20048;-77
2022/06/13 02:09:26;;;;;;;13.68;6.85;;;;;;;12.55;87.33;101990.78;10543493;28;20048;-77
2022/06/13 02:14:36;;;;;;;15.65;7.00;;;;;;;12.38;88.81;102008.28;10549169;28;20058;-77
2022/06/13 02:20:00;;;;;;;14.18;6.82;;;;;;;12.36;89.59;102025.47;10521592;28;20048;-77
2022/06/13 02:25:18;;;;;;;13.70;6.95;;;;;;;12.40;90.70;102018.72;10523180;28;20566;-77
2022/06/13 02:30:25;;;;;;;18.92;7.50;;;;;;;12.58;91.83;102001.25;10535836;28;20441;-77
2022/06/13 02:35:39;;;;;;;19.05;7.13;;;;;;;12.64;93.24;102001.47;10512493;28;20040;-78
2022/06/13 02:40:56;;;;;;;15.48;6.90;;;;;;;12.90;93.13;101996.31;10542551;28;20062;-79
2022/06/13 02:46:10;;;;;;;12.70;6.90;;;;;;;12.68;93.91;101987.84;10546172;28;21267;-79
2022/06/13 02:51:19;;;;;;;14.65;7.32;;;;;;;12.47;95.89;101981.91;10523117;28;20064;-79
2022/06/13 02:57:23;;;;;;;14.90;7.35;;;;;;;12.68;95.66;101963.66;10543373;28;20061;-79
2022/06/13 03:02:01;;;;;;;16.10;7.25;;;;;;;13.05;92.82;101958.84;10531516;28;20101;-79
2022/06/13 03:07:38;;;;;;;14.93;7.18;;;;;;;13.16;91.55;101965.25;10539480;28;20040;-79
2022/06/13 03:13:02;;;;;;;15.23;6.93;;;;;;;12.83;94.08;101976.25;10518716;28;20048;-79
2022/06/13 03:18:09;;;;;;;14.27;7.65;;;;;;;12.94;94.83;101958.50;10538869;28;20044;-80
2022/06/13 03:23:16;;;;;;;13.63;7.25;;;;;;;13.13;93.89;101957.41;10500271;28;20048;-79
2022/06/13 03:28:33;;;;;;;21.95;7.30;;;;;;;13.01;94.56;101966.50;10536850;28;20048;-78
2022/06/13 03:33:42;;;;;;;16.63;7.25;;;;;;;12.97;95.19;101969.84;10534399;28;20044;-79
2022/06/13 03:38:59;;;;;;;19.90;8.13;;;;;;;13.06;95.26;101968.38;10523124;28;20040;-78
2022/06/13 03:44:12;;;;;;;14.63;6.80;;;;;;;13.07;94.89;101978.78;10537236;28;20093;-79
2022/06/13 03:49:21;;;;;;;22.15;7.75;;;;;;;13.37;93.93;101980.59;10541507;28;20044;-78
2022/06/13 03:54:32;;;;;;;16.55;8.25;;;;;;;13.12;94.50;102000.50;10529308;28;20102;-78
2022/06/13 03:59:43;;;;;;;17.52;7.53;;;;;;;13.39;94.41;101999.69;10519436;28;20515;-78
2022/06/13 04:04:47;;;;;;;19.55;7.40;;;;;;;13.27;95.08;101992.38;10515600;28;20039;-78
2022/06/13 04:09:59;;;;;;;16.40;7.82;;;;;;;13.30;94.12;101995.03;10514279;28;20487;-78
2022/06/13 04:15:07;;;;;;;14.68;8.02;;;;;;;13.21;95.38;101989.59;10519623;28;20052;-78
2022/06/13 04:20:30;;;;;;;17.48;7.63;;;;;;;13.58;94.41;101990.78;10513466;28;20052;-78
2022/06/13 04:25:46;;;;;;;14.45;6.70;;;;;;;13.46;93.35;102005.91;10520511;28;20104;-79
2022/06/13 04:30:51;;;;;;;17.95;7.05;;;;;;;13.35;93.34;102002.94;10515251;28;20474;-80
2022/06/13 04:35:55;;;;;;;15.88;6.65;;;;;;;13.30;93.80;102004.53;10535544;28;20396;-80
2022/06/13 04:41:02;;;;;;;15.82;6.88;;;;;;;13.27;94.68;102010.47;10538636;28;20052;-79
2022/06/13 04:46:10;;;;;;;19.48;7.95;;;;;;;13.16;94.33;102020.47;10536516;28;20044;-79
2022/06/13 04:51:17;;;;;;;18.20;7.50;;;;;;;12.94;95.62;102012.81;10541126;28;20044;-80
2022/06/13 04:56:23;;;;;;;16.48;7.28;;;;;;;13.01;96.50;102002.72;10540305;28;20572;-79
2022/06/13 05:01:33;;;;;;;21.25;8.68;;;;;;;13.21;96.09;102015.47;10537082;28;20036;-80
2022/06/13 05:06:39;;;;;;;21.65;9.13;;;;;;;13.57;94.71;102014.91;10523502;28;20551;-80
2022/06/13 05:11:49;;;;;;;21.45;8.20;;;;;;;13.61;94.26;102005.53;10538976;28;20028;-80
2022/06/13 05:17:14;;;;;;;18.70;8.87;;;;;;;13.75;94.06;102024.06;10524882;28;20051;-80
2022/06/13 05:22:27;;;;;;;20.92;9.30;;;;;;;13.72;94.31;102018.81;10544311;28;20089;-80
2022/06/13 05:27:29;;;;;;;22.50;8.75;;;;;;;13.83;93.37;102021.72;10549787;28;20066;-79
2022/06/13 05:32:30;;;;;;;20.95;8.32;;;;;;;14.37;92.26;102031.06;10538975;28;20495;-80
2022/06/13 05:37:32;;;;;;;20.13;8.60;;;;;;;14.08;93.23;102023.34;10526945;28;20609;-79
2022/06/13 05:42:34;;;;;;;21.33;9.93;;;;;;;14.27;93.47;102029.94;10539029;28;20044;-80
2022/06/13 05:47:35;;;;;;;20.67;8.88;;;;;;;14.41;91.82;102043.25;10518862;28;20394;-80
2022/06/13 05:52:37;;;;;;;22.75;9.93;;;;;;;14.46;92.12;102041.69;10540693;28;20044;-80
2022/06/13 05:57:40;;;;;;;28.20;10.75;;;;;;;14.77;92.32;102050.38;10541100;28;20449;-79
2022/06/13 06:02:41;;;;;;;22.50;11.63;;;;;;;15.01;91.05;102051.81;10538894;28;20040;-80
2022/06/13 06:07:43;;;;;;;27.10;11.00;;;;;;;14.94;91.18;102060.28;10538125;28;20410;-79
2022/06/13 06:12:45;;;;;;;22.48;10.00;;;;;;;15.23;92.17;102054.13;10524604;28;20051;-79
2022/06/13 06:17:47;;;;;;;24.90;10.50;;;;;;;15.55;90.36;102054.03;10538722;28;20044;-80
2022/06/13 06:22:52;;;;;;;23.90;9.57;;;;;;;15.26;88.58;102058.53;10544414;28;20036;-80
2022/06/13 06:28:00;;;;;;;23.75;9.10;;;;;;;15.33;88.55;102063.06;10543556;28;20507;-80
2022/06/13 06:33:02;;;;;;;18.08;8.05;;;;;;;15.53;87.70;102067.84;10539379;28;20044;-79
2022/06/13 06:38:10;;;;;;;14.60;6.35;;;;;;;15.40;84.19;102066.66;10532159;28;20050;-80
2022/06/13 06:43:14;;;;;;;22.55;6.10;;;;;;;15.46;83.32;102078.91;10539605;28;20040;-79
2022/06/13 06:48:19;;;;;;;17.17;5.75;;;;;;;15.64;81.59;102076.75;10538223;28;20089;-78
2022/06/13 06:53:23;;;;;;;10.43;5.32;;;;;;;16.07;82.03;102076.03;10537079;28;20097;-78
2022/06/13 07:03:45;;;;;;;10.73;3.22;;;;;;;16.64;71.83;102064.19;10535757;28;20101;-78
2022/06/13 07:08:47;;;;;;;10.45;3.70;;;;;;;16.87;72.89;102068.94;10538448;28;20047;-79
2022/06/13 07:13:48;;;;;;;7.68;3.45;;;;;;;17.09;72.20;102068.50;10504448;28;20511;-78
2022/06/13 07:18:51;;;;;;;10.48;3.50;;;;;;;17.20;70.26;102065.22;10534745;28;20089;-80
2022/06/13 07:23:53;;;;;;;6.80;2.40;;;;;;;16.69;66.86;102077.28;10535874;28;20044;-78
2022/06/13 07:28:55;;;;;;;6.43;2.25;;;;;;;16.94;67.74;102086.47;10528713;28;20036;-78
2022/06/13 07:33:57;;;;;;;5.75;2.22;;;;;;;17.26;66.27;102075.72;10517367;28;20069;-78
2022/06/13 07:39:04;;;;;;;6.30;2.00;;;;;;;17.82;61.14;102081.84;10530886;28;20048;-79
2022/06/13 07:44:08;;;;;;;9.35;2.10;;;;;;;17.51;59.55;102092.63;10529662;28;20047;-78
2022/06/13 07:49:09;;;;;;;7.93;1.75;;;;;;;18.43;61.70;102081.81;10492267;28;20106;-78
2022/06/13 07:54:11;;;;;;;6.43;1.90;;;;;;;18.28;58.75;102079.84;10543563;28;20044;-77
2022/06/13 07:59:21;;;;;;;8.43;1.70;;;;;;;18.18;58.22;102097.13;10519480;28;20044;-78
2022/06/13 08:04:23;;;;;;;5.47;1.70;;;;;;;17.42;58.77;102103.81;10535023;28;20093;-79
2022/06/13 08:09:44;;;;;;;7.30;1.90;;;;;;;18.38;58.48;102105.22;10519958;28;20066;-78
2022/06/13 08:14:47;;;;;;;7.32;2.28;;;;;;;18.84;58.41;102109.22;10536876;28;20093;-78
2022/06/13 08:19:52;;;;;;;5.88;2.10;;;;;;;17.88;60.47;102105.38;10537879;28;20084;-79
2022/06/13 08:24:54;;;;;;;7.28;2.00;;;;;;;18.37;59.55;102113.03;10515948;28;20060;-80
2022/06/13 08:29:56;;;;;;;6.03;2.30;;;;;;;19.48;57.21;102113.31;10535573;28;20119;-80
2022/06/13 08:35:24;;;;;;;5.55;2.25;;;;;;;18.80;58.13;102125.72;10537108;28;20105;-78
2022/06/13 08:40:51;;;;;;;5.38;1.88;;;;;;;18.08;56.16;102111.78;10541793;28;20560;-77
2022/06/13 08:46:24;;;;;;;7.22;1.80;;;;;;;17.64;56.61;102130.19;10537697;28;20040;-80
2022/06/13 08:51:47;;;;;;;3.03;1.35;;;;;;;17.89;57.93;102133.22;10537161;28;20093;-78
2022/06/13 08:56:49;;;;;;;2.30;1.10;;;;;;;18.03;54.70;102134.31;10542661;28;20044;-77
2022/06/13 09:01:57;;;;;;;5.72;1.40;;;;;;;17.72;52.52;102138.16;10523001;28;20040;-78
2022/06/13 09:07:06;;;;;;;4.03;1.30;;;;;;;18.69;52.16;102149.09;10520577;28;20048;-78
2022/06/13 09:12:15;;;;;;;4.40;1.50;;;;;;;19.52;52.36;102138.66;10519282;28;20105;-79
2022/06/13 09:17:23;;;;;;;4.22;1.50;;;;;;;18.74;50.16;102151.75;10516580;28;20044;-78
2022/06/13 09:22:57;;;;;;;2.60;1.20;;;;;;;18.78;54.22;102137.88;10535503;28;20040;-79
2022/06/13 09:28:05;;;;;;;3.88;1.45;;;;;;;19.56;50.64;102143.03;10504777;28;20102;-79
2022/06/13 09:38:54;;;;;;;4.60;1.30;;;;;;;17.83;55.73;102161.78;10520805;28;20453;-78
2022/06/13 09:44:15;;;;;;;5.22;1.30;;;;;;;17.65;57.20;102173.66;10505407;28;20048;-79
2022/06/13 09:49:28;;;;;;;6.35;1.73;;;;;;;18.66;55.16;102173.41;10528198;28;20062;-79
2022/06/13 09:54:45;;;;;;;4.95;1.05;;;;;;;20.72;52.70;102150.72;10525861;28;20044;-79
2022/06/13 10:00:07;;;;;;;5.22;0.98;;;;;;;18.48;52.66;102162.75;10525149;28;20048;-80
2022/06/13 10:05:37;;;;;;;6.30;0.93;;;;;;;17.48;53.36;102185.50;10515322;28;20375;-80
2022/06/13 10:11:07;;;;;;;3.97;0.83;;;;;;;19.27;48.52;102175.00;10536729;28;20048;-79
2022/06/13 10:16:32;;;;;;;5.13;0.63;;;;;;;19.57;46.48;102178.75;10535157;28;20445;-81
2022/06/13 10:21:58;;;;;;;3.53;0.68;;;;;;;20.08;45.70;102171.34;10542290;28;20036;-78
2022/06/13 10:27:38;;;;;;;4.68;0.73;;;;;;;19.39;46.48;102189.91;10532300;28;20046;-79
2022/06/13 10:32:48;;;;;;;3.70;0.77;;;;;;;19.67;49.15;102182.31;10500661;28;20048;-81
2022/06/13 10:38:35;;;;;;;5.53;0.82;;;;;;;19.76;45.20;102197.22;10518664;28;20048;-81
2022/06/13 10:43:42;;;;;;;4.88;1.05;;;;;;;19.94;44.69;102186.06;10518130;28;20130;-81
2022/06/13 10:48:53;;;;;;;5.63;0.63;;;;;;;18.50;46.21;102187.13;10518817;28;20040;-81
2022/06/13 10:54:12;;;;;;;3.92;0.60;;;;;;;18.85;46.79;102184.09;10512188;28;20048;-80
2022/06/13 10:59:33;;;;;;;3.42;0.70;;;;;;;18.96;47.48;102182.50;10543819;28;20412;-80
2022/06/13 11:04:37;;;;;;;3.63;0.80;;;;;;;19.42;45.45;102186.47;10534527;28;20460;-80
2022/06/13 11:09:44;;;;;;;5.65;1.30;;;;;;;19.38;45.32;102192.53;10532143;28;20055;-80
2022/06/13 11:25:43;;;;;;;3.30;0.73;;;;;;;18.42;45.50;102212.25;10513591;28;20048;-80
2022/06/13 11:30:50;;;;;;;1.90;0.50;;;;;;;19.11;45.72;102207.03;10533980;28;20036;-80
2022/06/13 11:35:58;;;;;;;2.85;0.57;;;;;;;19.34;41.27;102197.72;10560672;28;20035;-80
2022/06/13 11:41:03;;;;;;;1.47;0.63;;;;;;;18.72;43.36;102209.16;10540829;28;20037;-80
2022/06/13 11:46:15;;;;;;;2.78;0.80;;;;;;;19.79;42.69;102215.53;10536836;28;20502;-79
2022/06/13 11:51:21;;;;;;;3.13;0.60;;;;;;;20.35;42.44;102202.91;10537509;28;20040;-80
2022/06/13 11:56:27;;;;;;;3.70;0.85;;;;;;;19.22;41.93;102215.88;10517651;28;20109;-80
2022/06/13 12:01:35;;;;;;;3.78;0.70;;;;;;;19.25;42.56;102210.69;10530542;28;20399;-80
2022/06/13 12:06:56;;;;;;;5.97;1.02;;;;;;;20.06;40.67;102204.47;10538090;28;20063;-81
2022/06/13 12:12:04;;;;;;;2.25;0.55;;;;;;;20.98;40.69;102194.47;10511639;28;20127;-80
2022/06/13 12:17:16;;;;;;;2.95;0.82;;;;;;;19.66;42.09;102206.72;10547249;28;20036;-80
2022/06/13 12:22:21;;;;;;;3.13;0.63;;;;;;;19.88;41.77;102217.41;10543044;28;20074;-80
2022/06/13 12:27:36;;;;;;;4.40;0.70;;;;;;;19.64;41.52;102213.69;10527484;28;20575;-81
2022/06/13 12:32:45;;;;;;;3.78;0.80;;;;;;;19.51;40.83;102228.38;10528442;28;20044;-81
2022/06/13 12:38:17;;;;;;;4.13;1.00;;;;;;;19.78;41.47;102226.84;10534602;28;20047;-80
2022/06/13 12:43:37;;;;;;;3.17;0.70;;;;;;;19.60;41.04;102223.25;10547512;28;20036;-80
2022/06/13 12:48:49;;;;;;;3.47;0.70;;;;;;;19.64;39.19;102230.22;10545407;28;20048;-81
2022/06/13 12:53:53;;;;;;;2.85;0.80;;;;;;;20.33;36.77;102222.94;10545612;28;20044;-81
2022/06/13 12:59:19;;;;;;;10.50;0.80;;;;;;;20.66;37.29;102218.78;10545135;28;20052;-80
2022/06/13 13:04:40;;;;;;;3.10;0.80;;;;;;;19.27;41.74;102235.09;10545567;28;20052;-80
2022/06/13 13:09:54;;;;;;;2.92;0.73;;;;;;;18.78;42.24;102226.66;10545358;28;20040;-80
2022/06/13 13:15:14;;;;;;;2.10;0.60;;;;;;;20.54;40.68;102219.59;10545597;28;20040;-81
2022/06/13 13:20:43;;;;;;;2.15;0.70;;;;;;;21.29;37.93;102212.91;10544922;28;20039;-80
2022/06/13 13:26:12;;;;;;;1.33;0.52;;;;;;;19.70;40.89;102224.19;10541104;28;20036;-80
2022/06/13 13:31:20;;;;;;;4.32;0.77;;;;;;;19.70;40.97;102224.19;10520174;28;20040;-79
2022/06/13 13:36:46;;;;;;;3.90;0.80;;;;;;;20.99;40.58;102218.06;10536378;28;20139;-80
2022/06/13 13:42:00;;;;;;;3.33;0.80;;;;;;;20.64;39.58;102231.84;10536827;28;20426;-80
2022/06/13 13:47:10;;;;;;;2.25;0.60;;;;;;;20.77;40.05;102228.44;10525889;28;20048;-80
2022/06/13 13:52:22;;;;;;;5.00;0.73;;;;;;;19.75;39.99;102234.69;10518859;28;20480;-81
2022/06/13 13:57:39;;;;;;;3.83;0.82;;;;;;;20.16;39.33;102228.94;10520105;28;20044;-81
2022/06/13 14:03:03;;;;;;;2.38;0.65;;;;;;;19.19;41.82;102228.91;10521072;28;20403;-81
2022/06/13 14:08:18;;;;;;;3.70;0.60;;;;;;;19.50;42.65;102229.22;10532512;28;20098;-80
2022/06/13 14:13:26;;;;;;;2.60;0.68;;;;;;;20.20;39.97;102225.50;10543130;28;20399;-80
2022/06/13 14:18:34;;;;;;;5.15;0.90;;;;;;;20.28;40.13;102229.03;10536346;28;20064;-80
2022/06/13 14:23:43;;;;;;;2.75;0.90;;;;;;;19.83;40.38;102238.25;10519803;28;20092;-80
2022/06/13 14:28:49;;;;;;;3.72;0.90;;;;;;;20.23;41.04;102227.25;10521687;28;20048;-80
2022/06/13 14:39:35;;;;;;;4.72;0.90;;;;;;;20.08;43.46;102231.50;10536135;28;20052;-80
2022/06/13 14:45:01;;;;;;;10.00;1.08;;;;;;;19.97;40.83;102226.19;10534345;28;20536;-81
2022/06/13 14:50:03;;;;;;;5.05;0.90;;;;;;;20.01;40.54;102223.59;10532158;28;20067;-80
2022/06/13 14:55:05;;;;;;;3.33;0.80;;;;;;;20.63;40.68;102224.00;10535055;28;20048;-81
2022/06/13 15:00:21;;;;;;;4.00;0.75;;;;;;;20.04;41.89;102239.31;10525467;28;20054;-80
2022/06/13 15:05:32;;;;;;;2.55;0.75;;;;;;;19.78;39.65;102237.31;10507728;28;20072;-80
2022/06/13 15:10:45;;;;;;;5.00;1.20;;;;;;;19.25;41.53;102234.19;10508450;28;20039;-80
2022/06/13 15:15:55;;;;;;;4.43;0.95;;;;;;;19.09;41.44;102240.97;10531638;28;20384;-80
2022/06/13 15:20:58;;;;;;;3.45;0.80;;;;;;;19.46;41.26;102241.38;10517237;28;20518;-80
2022/06/13 15:26:22;;;;;;;4.75;0.73;;;;;;;19.59;40.66;102252.84;10530856;28;20063;-79
2022/06/13 15:31:27;;;;;;;3.17;0.80;;;;;;;19.74;41.26;102240.78;10513980;28;20036;-80
2022/06/13 15:36:29;;;;;;;3.13;0.80;;;;;;;19.77;39.78;102240.81;10515485;28;20055;-80
2022/06/13 15:41:34;;;;;;;4.88;0.90;;;;;;;19.50;40.86;102243.19;10539725;28;20040;-81
2022/06/13 15:46:47;;;;;;;5.90;1.00;;;;;;;19.26;40.68;102249.00;10536892;28;20078;-80
2022/06/13 15:52:04;;;;;;;4.45;0.73;;;;;;;19.25;41.76;102242.03;10514569;28;20059;-80
2022/06/13 15:57:14;;;;;;;4.20;0.90;;;;;;;19.48;41.50;102244.91;10517954;28;20048;-80
2022/06/13 16:02:18;;;;;;;3.25;0.75;;;;;;;19.69;42.42;102245.09;10533082;28;20372;-81
2022/06/13 16:07:29;;;;;;;5.15;0.77;;;;;;;19.26;41.95;102249.00;10528386;28;20058;-80
2022/06/13 16:12:43;;;;;;;4.00;0.77;;;;;;;19.24;42.87;102245.53;10531044;28;20085;-79
2022/06/13 16:17:51;;;;;;;3.05;1.00;;;;;;;19.01;42.42;102245.22;10530373;28;20040;-80
2022/06/13 16:23:02;;;;;;;5.50;0.80;;;;;;;19.03;42.56;102246.13;10531767;28;20529;-80
2022/06/13 16:28:10;;;;;;;4.13;0.85;;;;;;;19.16;42.58;102247.16;10533444;28;20040;-81
2022/06/13 16:33:24;;;;;;;6.43;0.93;;;;;;;19.22;40.32;102252.47;10532539;28;20488;-80
2022/06/13 16:38:49;;;;;;;3.08;0.90;;;;;;;19.30;41.87;102249.91;10514135;28;20515;-81
2022/06/13 16:43:52;;;;;;;6.95;1.00;;;;;;;19.38;42.64;102247.41;10528395;28;20101;-81
2022/06/13 16:48:58;;;;;;;4.18;1.02;;;;;;;18.95;42.70;102247.78;10519110;28;20543;-80
2022/06/13 16:54:05;;;;;;;5.13;1.08;;;;;;;18.75;43.07;102242.25;10532385;28;20040;-80
2022/06/13 16:59:17;;;;;;;5.45;1.23;;;;;;;18.91;42.08;102245.97;10531977;28;20048;-80
2022/06/13 17:04:32;;;;;;;7.70;0.85;;;;;;;18.91;42.56;102245.97;10522744;28;20055;-81
2022/06/13 17:09:57;;;;;;;5.57;0.90;;;;;;;18.89;41.72;102243.31;10527932;28;20471;-80
2022/06/13 17:15:00;;;;;;;2.20;0.90;;;;;;;18.76;42.04;102239.69;10529246;28;20063;-75
2022/06/13 17:20:09;;;;;;;3.60;1.00;;;;;;;18.26;44.26;102240.72;10521638;28;20094;-76
2022/06/13 17:25:11;;;;;;;;;;;;;;;18.46;44.21;102243.63;10540484;28;20429;-75
2022/06/13 17:35:39;;;;;;;17.83;1.35;;;;;;;18.48;44.01;102251.47;10495100;28;20143;-77
2022/06/13 17:40:44;;;;;;;5.22;1.30;;;;;;;18.38;43.09;102255.69;10534320;28;20052;-75
2022/06/13 17:45:46;;;;;;;5.75;1.20;;;;;;;18.18;44.76;102255.38;10539261;28;20040;-76
2022/06/13 17:50:47;;;;;;;3.35;0.95;;;;;;;18.35;45.19;102251.31;10538195;28;20040;-76
2022/06/13 17:55:49;;;;;;;5.57;1.10;;;;;;;18.10;45.95;102252.63;10540280;28;20106;-76
2022/06/13 18:00:56;;;;;;;7.18;1.30;;;;;;;18.03;45.58;102259.47;10508696;28;20134;-76
2022/06/13 18:06:00;;;;;;;5.70;0.98;;;;;;;17.79;46.02;102259.03;10485008;28;20048;-76
2022/06/13 18:11:02;;;;;;;6.07;1.10;;;;;;;17.64;48.47;102255.28;10496192;28;20460;-75
2022/06/13 18:16:04;;;;;;;7.55;1.02;;;;;;;17.51;50.77;102250.72;10535443;28;20048;-75
2022/06/13 18:21:07;;;;;;;7.57;1.48;;;;;;;17.18;51.49;102262.22;10511444;28;20506;-76
2022/06/13 18:26:12;;;;;;;5.90;1.15;;;;;;;17.31;50.74;102272.06;10520600;28;20060;-76
2022/06/13 18:31:14;;;;;;;5.90;1.20;;;;;;;17.05;50.45;102275.00;10535717;28;20070;-75
2022/06/13 18:36:17;;;;;;;9.93;1.33;;;;;;;17.03;50.68;102274.06;10513847;28;20040;-75
2022/06/13 18:41:21;;;;;;;5.47;1.35;;;;;;;16.83;51.63;102284.03;10525838;28;20040;-76
2022/06/13 18:46:26;;;;;;;7.32;1.38;;;;;;;16.77;52.49;102279.59;10524173;28;20120;-76
2022/06/13 18:51:28;;;;;;;5.93;1.27;;;;;;;16.72;52.96;102275.97;10528238;28;20119;-75
2022/06/13 18:56:31;;;;;;;4.20;1.55;;;;;;;16.72;53.51;102275.97;10519849;28;20490;-76
2022/06/13 19:01:35;;;;;;;6.68;1.33;;;;;;;16.54;55.08;102275.56;10526816;28;20109;-76
2022/06/13 19:06:37;;;;;;;11.82;1.50;;;;;;;16.53;54.91;102272.06;10496131;28;20075;-75
2022/06/13 19:11:40;;;;;;;2.50;0.98;;;;;;;16.46;56.12;102284.06;10505516;28;20114;-76
2022/06/13 19:16:42;;;;;;;5.82;1.48;;;;;;;16.14;56.94;102297.16;10512355;28;20045;-75
2022/06/13 19:21:43;;;;;;;6.10;1.42;;;;;;;16.00;57.13;102293.34;10511565;28;20070;-76
2022/06/13 19:26:46;;;;;;;4.82;1.38;;;;;;;15.89;57.37;102294.81;10507111;28;20123;-75
2022/06/13 19:31:51;;;;;;;2.97;1.10;;;;;;;15.68;58.26;102302.03;10519819;28;20530;-77
2022/06/13 19:36:52;;;;;;;5.22;1.20;;;;;;;15.48;58.80;102298.88;10508250;28;20085;-75
2022/06/13 19:41:55;;;;;;;11.10;1.83;;;;;;;15.28;59.11;102307.81;10501614;28;20068;-77
2022/06/13 19:46:57;;;;;;;6.97;1.45;;;;;;;14.95;60.65;102321.53;10516922;28;20052;-75
2022/06/13 19:51:59;;;;;;;4.55;1.30;;;;;;;14.77;61.50;102322.75;10520092;28;20263;-76
2022/06/13 19:57:01;;;;;;;8.15;1.42;;;;;;;14.85;61.14;102329.06;10525919;28;20052;-76
2022/06/13 20:02:03;;;;;;;7.95;1.52;;;;;;;14.47;63.60;102341.66;10526925;28;20468;-76
2022/06/13 20:12:29;;;;;;;3.60;1.30;;;;;;;14.37;63.33;102340.44;10527322;28;20885;-76
2022/06/13 20:17:30;;;;;;;4.93;1.17;;;;;;;14.41;63.78;102344.03;10526698;28;20052;-75
2022/06/13 20:22:33;;;;;;;3.85;1.38;;;;;;;14.30;67.57;102340.22;10515679;28;20047;-76
2022/06/13 20:27:35;;;;;;;7.45;1.70;;;;;;;13.93;67.73;102343.31;10526225;28;20036;-75
2022/06/13 20:32:37;;;;;;;6.78;1.25;;;;;;;13.92;67.75;102362.25;10528031;28;20040;-77
2022/06/13 20:37:41;;;;;;;3.38;1.42;;;;;;;13.80;68.82;102364.44;10540852;28;20040;-77
2022/06/13 20:42:48;;;;;;;7.15;1.48;;;;;;;13.61;70.02;102362.88;10534611;28;20048;-76
2022/06/13 20:47:50;;;;;;;8.25;1.58;;;;;;;13.28;70.18;102352.97;10541136;28;20085;-76
2022/06/13 20:52:52;;;;;;;4.70;1.67;;;;;;;13.27;71.98;102357.28;10541262;28;20101;-76
2022/06/13 20:57:54;;;;;;;8.30;1.77;;;;;;;13.11;73.63;102365.28;10541825;28;20399;-76
2022/06/13 21:02:56;;;;;;;6.05;2.15;;;;;;;13.01;73.45;102364.91;10519954;28;20089;-76
2022/06/13 21:07:58;;;;;;;7.40;2.05;;;;;;;12.90;74.25;102376.56;10539775;28;20052;-77
2022/06/13 21:13:06;;;;;;;8.52;2.03;;;;;;;12.81;75.82;102369.28;10539805;28;20093;-76
2022/06/13 21:18:08;;;;;;;5.05;1.77;;;;;;;12.67;75.24;102365.25;10543872;28;20574;-77
2022/06/13 21:23:10;;;;;;;4.97;2.05;;;;;;;12.43;76.46;102371.22;10523717;28;20080;-76
2022/06/13 21:28:14;;;;;;;9.50;2.10;;;;;;;12.25;76.19;102366.13;10527433;28;20460;-75
2022/06/13 21:33:16;;;;;;;5.47;2.28;;;;;;;12.17;76.73;102370.09;10532013;28;20094;-77
2022/06/13 21:38:18;;;;;;;9.15;2.58;;;;;;;11.82;78.73;102357.38;10540396;28;20138;-76
2022/06/13 21:43:20;;;;;;;8.13;2.50;;;;;;;11.93;78.94;102360.44;10559244;28;20040;-77
2022/06/13 21:48:21;;;;;;;10.25;2.42;;;;;;;11.95;79.21;102368.25;10562656;28;20044;-77
2022/06/13 21:53:23;;;;;;;8.68;2.50;;;;;;;11.82;79.86;102366.81;10539009;28;20048;-77
2022/06/13 21:58:27;;;;;;;9.13;2.40;;;;;;;11.69;79.13;102365.41;10555715;28;20090;-77
2022/06/13 22:03:29;;;;;;;5.85;2.42;;;;;;;11.58;80.13;102364.91;10545413;28;20491;-76
2022/06/13 22:08:31;;;;;;;5.22;2.40;;;;;;;11.47;80.48;102361.81;10538181;28;20048;-76
2022/06/13 22:13:33;;;;;;;4.45;2.40;;;;;;;11.48;80.39;102360.16;10537332;28;20032;-75
2022/06/13 22:18:34;;;;;;;10.52;2.85;;;;;;;11.26;80.53;102364.31;10537753;28;20040;-75
2022/06/13 22:23:36;;;;;;;7.03;2.70;;;;;;;11.21;82.76;102370.94;10536908;28;20537;-76
2022/06/13 22:28:38;;;;;;;7.47;2.80;;;;;;;10.89;83.53;102372.91;10536499;28;20101;-75
2022/06/13 22:33:39;;;;;;;6.57;2.70;;;;;;;11.14;82.72;102374.03;10516461;28;20434;-76
2022/06/13 22:38:41;;;;;;;6.03;2.70;;;;;;;11.07;82.32;102368.59;10533942;28;20056;-76
2022/06/13 22:43:43;;;;;;;8.50;2.92;;;;;;;10.95;82.63;102379.22;10518319;28;20040;-76
2022/06/13 22:54:21;;;;;;;6.22;2.70;;;;;;;10.88;83.02;102390.03;10481384;28;20056;-75
2022/06/13 22:59:22;;;;;;;7.32;3.28;;;;;;;10.64;82.64;102397.47;10520576;28;20185;-76
2022/06/13 23:04:25;;;;;;;4.03;2.42;;;;;;;10.45;84.72;102409.44;10522645;28;20537;-76
2022/06/13 23:09:26;;;;;;;5.72;2.75;;;;;;;10.04;87.10;102402.13;10530192;28;20066;-76
2022/06/13 23:14:28;;;;;;;10.55;3.08;;;;;;;10.35;85.10;102394.28;10531763;28;20040;-77
2022/06/13 23:19:30;;;;;;;7.35;3.00;;;;;;;10.26;85.10;102383.50;10524730;28;20052;-75
2022/06/13 23:24:32;;;;;;;7.80;2.95;;;;;;;10.45;85.02;102386.25;10516547;28;20040;-76
2022/06/13 23:29:33;;;;;;;6.35;2.78;;;;;;;10.21;82.75;102374.66;10533940;28;20055;-76
2022/06/13 23:34:35;;;;;;;10.85;2.88;;;;;;;10.17;85.30;102376.19;10534335;28;20104;-76
2022/06/13 23:39:36;;;;;;;6.68;3.20;;;;;;;10.08;85.68;102379.19;10515217;28;20079;-76
2022/06/13 23:44:38;;;;;;;7.38;2.95;;;;;;;10.03;86.47;102395.22;10539165;28;20036;-76
2022/06/13 23:49:40;;;;;;;9.25;3.15;;;;;;;10.07;86.60;102402.28;10498562;28;20126;-76
2022/06/13 23:54:42;;;;;;;8.20;3.17;;;;;;;10.07;86.94;102398.03;10539027;28;20265;-76
